Time,TemperatureF,DewpointF,PressureIn,WindDirection,WindDirectionDegrees,WindSpeedMPH,WindSpeedGustMPH,Humidity,HourlyPrecipIn,Conditions,Clouds,dailyrainin,SoftwareType,DateUTC
2013-05-30 00:04:00,41.0,35.3,29.76,North,0,0.0,0.0,80,0.00,,SKC,0.00,VWS V13.00,2013-05-30 06:04:00,
2013-05-30 00:09:00,40.8,35.1,29.76,North,0,0.0,0.0,80,0.00,,SKC,0.00,VWS V13.00,2013-05-30 06:09:00,
2013-05-30 00:14:00,40.6,35.3,29.76,North,0,0.0,0.0,81,0.00,,SKC,0.00,VWS V13.00,2013-05-30 06:14:00,
2013-05-30 00:19:00,40.6,35.3,29.76,North,0,0.0,0.0,81,0.00,,SKC,0.00,VWS V13.00,2013-05-30 06:19:00,
2013-05-30 00:24:00,40.5,35.4,29.76,North,0,0.0,0.0,82,0.00,,SKC,0.00,VWS V13.00,2013-05-30 06:24:00,
2013-05-30 00:29:00,40.5,35.4,29.79,North,0,0.0,0.0,82,0.00,,SKC,0.00,VWS V13.00,2013-05-30 06:29:00,
2013-05-30 00:34:00,40.3,35.2,29.79,North,0,0.0,0.0,82,0.00,,SKC,0.00,VWS V13.00,2013-05-30 06:34:00,
2013-05-30 00:39:00,40.3,35.2,29.79,North,0,0.0,0.0,82,0.00,,SKC,0.00,VWS V13.00,2013-05-30 06:39:00,
2013-05-30 00:44:00,40.1,35.1,29.79,North,0,0.0,0.0,82,0.00,,SKC,0.00,VWS V13.00,2013-05-30 06:44:00,
2013-05-30 00:49:00,40.1,35.1,29.79,North,0,0.0,0.0,82,0.00,,SKC,0.00,VWS V13.00,2013-05-30 06:49:00,
2013-05-30 00:54:00,39.9,34.9,29.79,North,0,0.0,0.0,82,0.00,,SKC,0.00,VWS V13.00,2013-05-30 06:54:00,
2013-05-30 00:59:00,39.9,34.9,29.76,North,0,0.0,0.0,82,0.00,,SKC,0.00,VWS V13.00,2013-05-30 06:59:00,
2013-05-30 01:04:00,39.9,34.9,29.76,North,0,0.0,0.0,82,0.00,,SKC,0.00,VWS V13.00,2013-05-30 07:04:00,
2013-05-30 01:09:00,39.9,34.9,29.76,North,0,0.0,0.0,82,0.00,,SKC,0.00,VWS V13.00,2013-05-30 07:09:00,
2013-05-30 01:14:00,39.7,34.7,29.79,North,0,0.0,0.0,82,0.00,,SKC,0.00,VWS V13.00,2013-05-30 07:14:00,
2013-05-30 01:20:00,39.7,34.7,29.79,North,0,0.0,0.0,82,0.00,,SKC,0.00,VWS V13.00,2013-05-30 07:20:00,
2013-05-30 01:25:00,39.6,34.5,29.79,North,0,0.0,0.0,82,0.00,,SKC,0.00,VWS V13.00,2013-05-30 07:25:00,
2013-05-30 01:30:00,39.4,34.7,29.76,North,0,0.0,0.0,83,0.00,,SKC,0.00,VWS V13.00,2013-05-30 07:30:00,
2013-05-30 01:35:00,39.4,34.7,29.76,North,0,0.0,0.0,83,0.00,,SKC,0.00,VWS V13.00,2013-05-30 07:35:00,
2013-05-30 01:40:00,39.4,34.7,29.76,North,0,0.0,0.0,83,0.00,,SKC,0.00,VWS V13.00,2013-05-30 07:40:00,
2013-05-30 01:45:00,39.2,34.5,29.79,North,0,0.0,0.0,83,0.00,,SKC,0.00,VWS V13.00,2013-05-30 07:45:00,
2013-05-30 01:50:00,39.0,34.3,29.79,North,0,0.0,0.0,83,0.00,,SKC,0.00,VWS V13.00,2013-05-30 07:50:00,
2013-05-30 01:55:00,38.8,34.1,29.79,North,0,0.0,0.0,83,0.00,,SKC,0.00,VWS V13.00,2013-05-30 07:55:00,
2013-05-30 02:00:00,38.7,34.0,29.79,North,0,0.0,0.0,83,0.00,,SKC,0.00,VWS V13.00,2013-05-30 08:00:00,
2013-05-30 02:05:00,38.8,34.4,29.79,North,0,0.0,0.0,84,0.00,,SKC,0.00,VWS V13.00,2013-05-30 08:05:00,
2013-05-30 02:10:00,38.7,34.2,29.79,North,0,0.0,0.0,84,0.00,,SKC,0.00,VWS V13.00,2013-05-30 08:10:00,
2013-05-30 02:15:00,38.7,34.2,29.79,North,0,0.0,0.0,84,0.00,,SKC,0.00,VWS V13.00,2013-05-30 08:15:00,
2013-05-30 02:20:00,38.7,34.2,29.79,North,0,0.0,0.0,84,0.00,,SKC,0.00,VWS V13.00,2013-05-30 08:20:00,
2013-05-30 02:25:00,38.5,34.1,29.79,North,0,0.0,0.0,84,0.00,,SKC,0.00,VWS V13.00,2013-05-30 08:25:00,
2013-05-30 02:30:00,38.5,34.1,29.79,North,0,0.0,0.0,84,0.00,,SKC,0.00,VWS V13.00,2013-05-30 08:30:00,
2013-05-30 02:35:00,38.5,34.1,29.79,North,0,0.0,0.0,84,0.00,,SKC,0.00,VWS V13.00,2013-05-30 08:35:00,
2013-05-30 02:40:00,38.3,33.9,29.79,North,0,0.0,0.0,84,0.00,,SKC,0.00,VWS V13.00,2013-05-30 08:40:00,
2013-05-30 02:45:00,38.1,33.7,29.76,North,0,0.0,0.0,84,0.00,,SKC,0.00,VWS V13.00,2013-05-30 08:45:00,
2013-05-30 02:50:00,38.1,33.7,29.76,North,0,0.0,0.0,84,0.00,,SKC,0.00,VWS V13.00,2013-05-30 08:50:00,
2013-05-30 02:55:00,37.9,33.5,29.76,North,0,0.0,0.0,84,0.00,,SKC,0.00,VWS V13.00,2013-05-30 08:55:00,
2013-05-30 03:00:00,37.9,33.5,29.76,North,0,0.0,0.0,84,0.00,,SKC,0.00,VWS V13.00,2013-05-30 09:00:00,
2013-05-30 03:05:00,37.9,33.5,29.76,North,0,0.0,0.0,84,0.00,,SKC,0.00,VWS V13.00,2013-05-30 09:05:00,
2013-05-30 03:10:00,37.8,33.4,29.76,North,0,0.0,0.0,84,0.00,,SKC,0.00,VWS V13.00,2013-05-30 09:10:00,
2013-05-30 03:16:00,37.9,33.5,29.76,North,0,0.0,0.0,84,0.00,,SKC,0.00,VWS V13.00,2013-05-30 09:16:00,
2013-05-30 03:21:00,37.9,33.5,29.76,North,0,0.0,0.0,84,0.00,,SKC,0.00,VWS V13.00,2013-05-30 09:21:00,
2013-05-30 03:26:00,37.9,33.5,29.76,North,0,0.0,0.0,84,0.00,,SKC,0.00,VWS V13.00,2013-05-30 09:26:00,
2013-05-30 03:31:00,38.1,33.7,29.79,North,0,0.0,0.0,84,0.00,,SKC,0.00,VWS V13.00,2013-05-30 09:31:00,
2013-05-30 03:36:00,38.1,34.0,29.79,North,0,0.0,0.0,85,0.00,,SKC,0.00,VWS V13.00,2013-05-30 09:36:00,
2013-05-30 03:41:00,37.9,33.8,29.79,North,0,0.0,0.0,85,0.00,,SKC,0.00,VWS V13.00,2013-05-30 09:41:00,
2013-05-30 03:46:00,37.9,33.8,29.79,North,0,0.0,0.0,85,0.00,,SKC,0.00,VWS V13.00,2013-05-30 09:46:00,
2013-05-30 03:51:00,37.9,33.8,29.79,North,0,0.0,0.0,85,0.00,,SKC,0.00,VWS V13.00,2013-05-30 09:51:00,
2013-05-30 03:56:00,37.8,33.4,29.79,North,0,0.0,0.0,84,0.00,,SKC,0.00,VWS V13.00,2013-05-30 09:56:00,
2013-05-30 04:01:00,37.6,33.2,29.79,North,0,0.0,0.0,84,0.00,,SKC,0.00,VWS V13.00,2013-05-30 10:01:00,
2013-05-30 04:06:00,37.6,33.2,29.79,North,0,0.0,0.0,84,0.00,,SKC,0.00,VWS V13.00,2013-05-30 10:06:00,
2013-05-30 04:11:00,37.4,33.0,29.79,North,0,0.0,0.0,84,0.00,,SKC,0.00,VWS V13.00,2013-05-30 10:11:00,
2013-05-30 04:16:00,37.4,33.0,29.79,North,0,0.0,0.0,84,0.00,,SKC,0.00,VWS V13.00,2013-05-30 10:16:00,
2013-05-30 04:21:00,37.2,33.1,29.79,North,0,0.0,0.0,85,0.00,,SKC,0.00,VWS V13.00,2013-05-30 10:21:00,
2013-05-30 04:26:00,37.2,33.1,29.79,North,0,0.0,0.0,85,0.00,,SKC,0.00,VWS V13.00,2013-05-30 10:26:00,
2013-05-30 04:31:00,37.0,33.0,29.79,North,0,0.0,0.0,85,0.00,,SKC,0.00,VWS V13.00,2013-05-30 10:31:00,
2013-05-30 04:36:00,37.0,33.0,29.79,North,0,0.0,0.0,85,0.00,,SKC,0.00,VWS V13.00,2013-05-30 10:36:00,
2013-05-30 04:41:00,37.0,33.0,29.79,North,0,0.0,0.0,85,0.00,,SKC,0.00,VWS V13.00,2013-05-30 10:41:00,
2013-05-30 04:46:00,37.0,33.0,29.79,North,0,0.0,0.0,85,0.00,,SKC,0.00,VWS V13.00,2013-05-30 10:46:00,
2013-05-30 04:51:00,36.9,32.8,29.79,North,0,0.0,0.0,85,0.00,,SKC,0.00,VWS V13.00,2013-05-30 10:51:00,
2013-05-30 04:56:00,36.9,32.8,29.79,North,0,0.0,0.0,85,0.00,,SKC,0.00,VWS V13.00,2013-05-30 10:56:00,
2013-05-30 05:01:00,36.9,32.8,29.79,North,0,0.0,0.0,85,0.00,,SKC,0.00,VWS V13.00,2013-05-30 11:01:00,
2013-05-30 05:06:00,36.7,32.6,29.79,North,0,0.0,0.0,85,0.00,,SKC,0.00,VWS V13.00,2013-05-30 11:06:00,
2013-05-30 05:11:00,36.9,32.8,29.79,North,0,0.0,0.0,85,0.00,,SKC,0.00,VWS V13.00,2013-05-30 11:11:00,
2013-05-30 05:17:00,36.9,32.8,29.79,North,0,0.0,0.0,85,0.00,,SKC,0.00,VWS V13.00,2013-05-30 11:17:00,
2013-05-30 05:22:00,36.9,33.1,29.79,North,0,0.0,0.0,86,0.00,,SKC,0.00,VWS V13.00,2013-05-30 11:22:00,
2013-05-30 05:27:00,37.0,33.2,29.79,North,0,0.0,0.0,86,0.00,,SKC,0.00,VWS V13.00,2013-05-30 11:27:00,
2013-05-30 05:32:00,37.2,33.4,29.79,North,0,0.0,0.0,86,0.00,,SKC,0.00,VWS V13.00,2013-05-30 11:32:00,
2013-05-30 05:37:00,37.2,33.4,29.79,North,0,0.0,0.0,86,0.00,,SKC,0.00,VWS V13.00,2013-05-30 11:37:00,
2013-05-30 05:42:00,37.4,33.6,29.79,North,0,0.0,0.0,86,0.00,,SKC,0.00,VWS V13.00,2013-05-30 11:42:00,
2013-05-30 05:47:00,37.4,33.6,29.79,North,0,0.0,0.0,86,0.00,,SKC,0.00,VWS V13.00,2013-05-30 11:47:00,
2013-05-30 05:52:00,37.8,34.0,29.79,North,0,0.0,0.0,86,0.00,,SKC,0.00,VWS V13.00,2013-05-30 11:52:00,
2013-05-30 05:57:00,38.1,34.6,29.79,North,0,0.0,0.0,87,0.00,,SKC,0.00,VWS V13.00,2013-05-30 11:57:00,
2013-05-30 06:02:00,37.9,34.1,29.82,North,0,0.0,0.0,86,0.00,,SKC,0.00,VWS V13.00,2013-05-30 12:02:00,
2013-05-30 06:07:00,37.6,33.5,29.82,North,0,0.0,0.0,85,0.00,,SKC,0.00,VWS V13.00,2013-05-30 12:07:00,
2013-05-30 06:12:00,37.4,33.3,29.82,North,0,0.0,0.0,85,0.00,,SKC,0.00,VWS V13.00,2013-05-30 12:12:00,
2013-05-30 06:17:00,37.4,33.3,29.82,North,0,0.0,0.0,85,0.00,,SKC,0.00,VWS V13.00,2013-05-30 12:17:00,
2013-05-30 06:22:00,37.4,33.3,29.82,North,0,0.0,0.0,85,0.00,,SKC,0.00,VWS V13.00,2013-05-30 12:22:00,
2013-05-30 06:27:00,37.6,33.8,29.79,North,0,0.0,0.0,86,0.00,,SKC,0.00,VWS V13.00,2013-05-30 12:27:00,
2013-05-30 06:32:00,37.9,34.1,29.79,North,0,0.0,0.0,86,0.00,,SKC,0.00,VWS V13.00,2013-05-30 12:32:00,
2013-05-30 06:37:00,38.5,35.0,29.79,North,0,0.0,0.0,87,0.00,,SKC,0.00,VWS V13.00,2013-05-30 12:37:00,
2013-05-30 06:42:00,39.0,35.8,29.79,North,0,0.0,0.0,88,0.00,,SKC,0.00,VWS V13.00,2013-05-30 12:42:00,
2013-05-30 06:47:00,39.4,36.1,29.79,North,0,0.0,0.0,88,0.00,,SKC,0.00,VWS V13.00,2013-05-30 12:47:00,
2013-05-30 06:52:00,39.7,36.5,29.79,North,0,0.0,0.0,88,0.00,,SKC,0.00,VWS V13.00,2013-05-30 12:52:00,
2013-05-30 06:57:00,39.9,36.7,29.82,North,0,0.0,0.0,88,0.00,,SKC,0.00,VWS V13.00,2013-05-30 12:57:00,
2013-05-30 07:02:00,39.9,36.7,29.82,North,0,0.0,0.0,88,0.00,,SKC,0.00,VWS V13.00,2013-05-30 13:02:00,
2013-05-30 07:07:00,40.1,36.8,29.82,North,0,0.0,0.0,88,0.00,,SKC,0.00,VWS V13.00,2013-05-30 13:07:00,
2013-05-30 07:12:00,40.3,37.3,29.82,North,0,0.0,0.0,89,0.00,,SKC,0.00,VWS V13.00,2013-05-30 13:12:00,
2013-05-30 07:18:00,40.5,37.5,29.82,North,0,0.0,0.0,89,0.00,,SKC,0.00,VWS V13.00,2013-05-30 13:18:00,
2013-05-30 07:23:00,40.6,37.7,29.82,North,0,0.0,0.0,89,0.00,,SKC,0.00,VWS V13.00,2013-05-30 13:23:00,
2013-05-30 07:28:00,40.8,37.8,29.82,North,0,0.0,0.0,89,0.00,,SKC,0.00,VWS V13.00,2013-05-30 13:28:00,
2013-05-30 07:33:00,41.2,38.2,29.82,North,0,0.0,0.0,89,0.00,,SKC,0.00,VWS V13.00,2013-05-30 13:33:00,
2013-05-30 07:38:00,41.5,38.5,29.82,North,0,0.0,0.0,89,0.00,,SKC,0.00,VWS V13.00,2013-05-30 13:38:00,
2013-05-30 07:43:00,41.7,38.7,29.82,North,0,0.0,0.0,89,0.00,,SKC,0.00,VWS V13.00,2013-05-30 13:43:00,
2013-05-30 07:48:00,42.1,38.8,29.82,North,0,0.0,0.0,88,0.00,,SKC,0.00,VWS V13.00,2013-05-30 13:48:00,
2013-05-30 07:53:00,42.3,39.0,29.82,North,0,0.0,0.0,88,0.00,,SKC,0.00,VWS V13.00,2013-05-30 13:53:00,
2013-05-30 07:58:00,42.6,39.3,29.82,North,0,0.0,0.0,88,0.00,,SKC,0.00,VWS V13.00,2013-05-30 13:58:00,
2013-05-30 08:03:00,42.8,39.5,29.82,North,0,0.0,0.0,88,0.00,,SKC,0.00,VWS V13.00,2013-05-30 14:03:00,
2013-05-30 08:08:00,42.8,39.2,29.82,North,0,0.0,0.0,87,0.00,,SKC,0.00,VWS V13.00,2013-05-30 14:08:00,
2013-05-30 08:13:00,42.8,39.2,29.82,North,0,0.0,0.0,87,0.00,,SKC,0.00,VWS V13.00,2013-05-30 14:13:00,
2013-05-30 08:18:00,43.0,39.4,29.82,North,0,0.0,0.0,87,0.00,,SKC,0.00,VWS V13.00,2013-05-30 14:18:00,
2013-05-30 08:23:00,43.0,39.4,29.82,North,0,0.0,0.0,87,0.00,,SKC,0.00,VWS V13.00,2013-05-30 14:23:00,
2013-05-30 08:28:00,43.2,39.6,29.82,North,0,0.0,0.0,87,0.00,,SKC,0.00,VWS V13.00,2013-05-30 14:28:00,
2013-05-30 08:33:00,43.3,39.7,29.82,North,0,0.0,0.0,87,0.00,,SKC,0.00,VWS V13.00,2013-05-30 14:33:00,
2013-05-30 08:38:00,43.5,39.9,29.82,North,0,0.0,0.0,87,0.00,,SKC,0.00,VWS V13.00,2013-05-30 14:38:00,
2013-05-30 08:43:00,43.5,39.9,29.82,North,0,0.0,0.0,87,0.00,,SKC,0.00,VWS V13.00,2013-05-30 14:43:00,
2013-05-30 08:48:00,43.7,40.1,29.82,North,0,0.0,0.0,87,0.00,,SKC,0.00,VWS V13.00,2013-05-30 14:48:00,
2013-05-30 08:53:00,43.9,40.3,29.82,North,0,0.0,0.0,87,0.00,,SKC,0.00,VWS V13.00,2013-05-30 14:53:00,
2013-05-30 08:58:00,43.9,40.3,29.82,North,0,0.0,0.0,87,0.00,,SKC,0.00,VWS V13.00,2013-05-30 14:58:00,
2013-05-30 09:03:00,43.9,40.3,29.82,North,0,0.0,0.0,87,0.00,,SKC,0.00,VWS V13.00,2013-05-30 15:03:00,
2013-05-30 09:08:00,43.9,40.3,29.82,North,0,0.0,0.0,87,0.00,,SKC,0.00,VWS V13.00,2013-05-30 15:08:00,
2013-05-30 09:13:00,44.4,40.8,29.85,North,0,0.0,0.0,87,0.00,,SKC,0.00,VWS V13.00,2013-05-30 15:13:00,
2013-05-30 09:18:00,45.3,41.7,29.85,North,0,0.0,0.0,87,0.00,,SKC,0.00,VWS V13.00,2013-05-30 15:18:00,
2013-05-30 09:23:00,46.0,42.1,29.85,North,0,0.0,0.0,86,0.00,,SKC,0.00,VWS V13.00,2013-05-30 15:23:00,
2013-05-30 09:29:00,46.6,41.7,29.85,North,0,0.0,0.0,83,0.00,,SKC,0.00,VWS V13.00,2013-05-30 15:29:00,
2013-05-30 09:34:00,46.6,40.4,29.85,North,0,0.0,0.0,79,0.00,,SKC,0.00,VWS V13.00,2013-05-30 15:34:00,
2013-05-30 09:39:00,46.8,39.6,29.85,North,0,0.0,0.0,76,0.00,,SKC,0.00,VWS V13.00,2013-05-30 15:39:00,
2013-05-30 09:44:00,46.8,39.6,29.85,North,0,0.0,0.0,76,0.00,,SKC,0.00,VWS V13.00,2013-05-30 15:44:00,
2013-05-30 09:49:00,46.6,37.3,29.85,North,0,0.0,0.0,70,0.00,,SKC,0.00,VWS V13.00,2013-05-30 15:49:00,
2013-05-30 09:54:00,46.8,35.2,29.85,North,0,0.0,0.0,64,0.00,,SKC,0.00,VWS V13.00,2013-05-30 15:54:00,
2013-05-30 09:59:00,47.5,35.1,29.85,North,0,0.0,0.0,62,0.00,,SKC,0.00,VWS V13.00,2013-05-30 15:59:00,
2013-05-30 10:04:00,48.0,36.8,29.85,North,0,0.0,0.0,65,0.00,,SKC,0.00,VWS V13.00,2013-05-30 16:04:00,
2013-05-30 10:09:00,49.5,37.4,29.85,North,0,0.0,0.0,63,0.00,,SKC,0.00,VWS V13.00,2013-05-30 16:09:00,
2013-05-30 10:14:00,50.4,32.9,29.85,North,0,0.0,0.0,51,0.00,,SKC,0.00,VWS V13.00,2013-05-30 16:14:00,
2013-05-30 10:19:00,51.3,32.8,29.85,North,0,0.0,0.0,49,0.00,,SKC,0.00,VWS V13.00,2013-05-30 16:19:00,
2013-05-30 10:24:00,51.4,31.9,29.85,North,0,0.0,0.0,47,0.00,,SKC,0.00,VWS V13.00,2013-05-30 16:24:00,
2013-05-30 10:29:00,51.3,32.3,29.85,North,0,0.0,0.0,48,0.00,,SKC,0.00,VWS V13.00,2013-05-30 16:29:00,
2013-05-30 10:34:00,51.6,33.6,29.85,North,0,0.0,0.0,50,0.00,,SKC,0.00,VWS V13.00,2013-05-30 16:34:00,
2013-05-30 10:39:00,52.5,33.9,29.85,North,0,0.0,0.0,49,0.00,,SKC,0.00,VWS V13.00,2013-05-30 16:39:00,
2013-05-30 10:44:00,53.1,33.4,29.85,North,0,0.0,0.0,47,0.00,,SKC,0.00,VWS V13.00,2013-05-30 16:44:00,
2013-05-30 10:49:00,53.4,31.5,29.85,North,0,0.0,0.0,43,0.00,,SKC,0.00,VWS V13.00,2013-05-30 16:49:00,
2013-05-30 10:54:00,53.2,31.3,29.85,North,0,0.0,0.0,43,0.00,,SKC,0.00,VWS V13.00,2013-05-30 16:54:00,
2013-05-30 10:59:00,53.4,32.1,29.85,North,0,0.0,0.0,44,0.00,,SKC,0.00,VWS V13.00,2013-05-30 16:59:00,
2013-05-30 11:04:00,53.1,31.2,29.85,North,0,0.0,0.0,43,0.00,,SKC,0.00,VWS V13.00,2013-05-30 17:04:00,
2013-05-30 11:09:00,53.2,32.5,29.85,North,0,0.0,0.0,45,0.00,,SKC,0.00,VWS V13.00,2013-05-30 17:09:00,
2013-05-30 11:14:00,53.6,31.1,29.85,North,0,0.0,0.0,42,0.00,,SKC,0.00,VWS V13.00,2013-05-30 17:14:00,
2013-05-30 11:19:00,53.4,33.2,29.85,North,0,0.0,0.0,46,0.00,,SKC,0.00,VWS V13.00,2013-05-30 17:19:00,
2013-05-30 11:24:00,52.9,31.6,29.85,North,0,0.0,0.0,44,0.00,,SKC,0.00,VWS V13.00,2013-05-30 17:24:00,
2013-05-30 11:30:00,53.1,32.8,29.85,North,0,0.0,0.0,46,0.00,,SKC,0.00,VWS V13.00,2013-05-30 17:30:00,
2013-05-30 11:34:00,53.8,31.2,29.85,North,0,0.0,0.0,42,0.00,,SKC,0.00,VWS V13.00,2013-05-30 17:34:00,
2013-05-30 11:40:00,54.1,31.0,29.85,North,0,0.0,0.0,41,0.00,,SKC,0.00,VWS V13.00,2013-05-30 17:40:00,
2013-05-30 11:45:00,54.0,31.4,29.85,North,0,0.0,0.0,42,0.00,,SKC,0.00,VWS V13.00,2013-05-30 17:45:00,
2013-05-30 11:50:00,54.1,32.2,29.85,North,0,0.0,0.0,43,0.00,,SKC,0.00,VWS V13.00,2013-05-30 17:50:00,
2013-05-30 11:55:00,54.0,32.0,29.85,North,0,0.0,0.0,43,0.00,,SKC,0.00,VWS V13.00,2013-05-30 17:55:00,
2013-05-30 12:00:00,53.6,31.7,29.85,North,0,0.0,0.0,43,0.00,,SKC,0.00,VWS V13.00,2013-05-30 18:00:00,
2013-05-30 12:05:00,54.1,31.0,29.85,North,0,0.0,0.0,41,0.00,,SKC,0.00,VWS V13.00,2013-05-30 18:05:00,
2013-05-30 12:10:00,54.9,30.4,29.85,North,0,0.0,0.0,39,0.00,,SKC,0.00,VWS V13.00,2013-05-30 18:10:00,
2013-05-30 12:15:00,55.2,30.1,29.85,North,0,0.0,0.0,38,0.00,,SKC,0.00,VWS V13.00,2013-05-30 18:15:00,
2013-05-30 12:20:00,54.9,29.8,29.85,North,0,0.0,0.0,38,0.00,,SKC,0.00,VWS V13.00,2013-05-30 18:20:00,
2013-05-30 12:25:00,54.9,29.8,29.85,North,0,0.0,0.0,38,0.00,,SKC,0.00,VWS V13.00,2013-05-30 18:25:00,
2013-05-30 12:30:00,55.2,30.1,29.82,North,0,0.0,0.0,38,0.00,,SKC,0.00,VWS V13.00,2013-05-30 18:30:00,
2013-05-30 12:35:00,55.2,30.1,29.82,North,0,0.0,0.0,38,0.00,,SKC,0.00,VWS V13.00,2013-05-30 18:35:00,
2013-05-30 12:40:00,55.8,29.9,29.82,North,0,0.0,0.0,37,0.00,,SKC,0.00,VWS V13.00,2013-05-30 18:40:00,
2013-05-30 12:45:00,55.9,29.4,29.85,North,0,0.0,0.0,36,0.00,,SKC,0.00,VWS V13.00,2013-05-30 18:45:00,
2013-05-30 12:50:00,56.1,29.5,29.85,North,0,0.0,0.0,36,0.00,,SKC,0.00,VWS V13.00,2013-05-30 18:50:00,
2013-05-30 12:55:00,56.8,30.2,29.85,North,0,0.0,0.0,36,0.00,,SKC,0.00,VWS V13.00,2013-05-30 18:55:00,
2013-05-30 13:00:00,57.9,31.1,29.85,North,0,0.0,0.0,36,0.00,,SKC,0.00,VWS V13.00,2013-05-30 19:00:00,
2013-05-30 13:05:00,58.6,31.1,29.85,North,0,0.0,0.0,35,0.00,,SKC,0.00,VWS V13.00,2013-05-30 19:05:00,
2013-05-30 13:10:00,59.2,31.6,29.85,North,0,0.0,0.0,35,0.00,,SKC,0.00,VWS V13.00,2013-05-30 19:10:00,
2013-05-30 13:16:00,59.0,31.4,29.82,North,0,0.0,0.0,35,0.00,,SKC,0.00,VWS V13.00,2013-05-30 19:16:00,
2013-05-30 13:21:00,58.1,30.6,29.82,North,0,0.0,0.0,35,0.00,,SKC,0.00,VWS V13.00,2013-05-30 19:21:00,
2013-05-30 13:26:00,56.7,30.0,29.82,North,0,0.0,0.0,36,0.00,,SKC,0.00,VWS V13.00,2013-05-30 19:26:00,
2013-05-30 13:31:00,55.9,28.7,29.85,North,0,0.0,0.0,35,0.00,,SKC,0.00,VWS V13.00,2013-05-30 19:31:00,
2013-05-30 13:36:00,55.4,28.2,29.85,North,0,0.0,0.0,35,0.00,,SKC,0.00,VWS V13.00,2013-05-30 19:36:00,
2013-05-30 13:41:00,53.8,26.8,29.85,North,0,0.0,0.0,35,0.00,,SKC,0.00,VWS V13.00,2013-05-30 19:41:00,
2013-05-30 13:46:00,53.2,27.0,29.85,North,0,0.0,0.0,36,0.00,,SKC,0.00,VWS V13.00,2013-05-30 19:46:00,
2013-05-30 13:51:00,53.4,27.8,29.85,North,0,0.0,0.0,37,0.00,,SKC,0.00,VWS V13.00,2013-05-30 19:51:00,
2013-05-30 13:56:00,53.4,27.8,29.85,North,0,0.0,0.0,37,0.00,,SKC,0.00,VWS V13.00,2013-05-30 19:56:00,
2013-05-30 14:01:00,54.1,27.8,29.85,North,0,0.0,0.0,36,0.00,,SKC,0.00,VWS V13.00,2013-05-30 20:01:00,
2013-05-30 14:06:00,54.1,27.8,29.85,North,0,0.0,0.0,36,0.00,,SKC,0.00,VWS V13.00,2013-05-30 20:06:00,
2013-05-30 14:11:00,53.8,27.5,29.85,North,0,0.0,0.0,36,0.00,,SKC,0.00,VWS V13.00,2013-05-30 20:11:00,
2013-05-30 14:16:00,53.4,27.8,29.85,North,0,0.0,0.0,37,0.00,,SKC,0.00,VWS V13.00,2013-05-30 20:16:00,
2013-05-30 14:21:00,53.6,28.0,29.85,North,0,0.0,0.0,37,0.00,,SKC,0.00,VWS V13.00,2013-05-30 20:21:00,
2013-05-30 14:26:00,54.3,28.6,29.85,North,0,0.0,0.0,37,0.00,,SKC,0.00,VWS V13.00,2013-05-30 20:26:00,
2013-05-30 14:31:00,55.2,28.8,29.85,North,0,0.0,0.0,36,0.00,,SKC,0.00,VWS V13.00,2013-05-30 20:31:00,
2013-05-30 14:36:00,55.9,29.4,29.85,North,0,0.0,0.0,36,0.00,,SKC,0.00,VWS V13.00,2013-05-30 20:36:00,
2013-05-30 14:41:00,56.7,29.3,29.85,North,0,0.0,0.0,35,0.00,,SKC,0.00,VWS V13.00,2013-05-30 20:41:00,
2013-05-30 14:46:00,57.2,29.8,29.85,North,0,0.0,0.0,35,0.00,,SKC,0.00,VWS V13.00,2013-05-30 20:46:00,
2013-05-30 14:52:00,57.7,30.3,29.85,North,0,0.0,0.0,35,0.00,,SKC,0.00,VWS V13.00,2013-05-30 20:52:00,
2013-05-30 14:57:00,58.1,30.6,29.85,North,0,0.0,0.0,35,0.00,,SKC,0.00,VWS V13.00,2013-05-30 20:57:00,
2013-05-30 15:02:00,58.6,30.4,29.82,North,0,0.0,0.0,34,0.00,,SKC,0.00,VWS V13.00,2013-05-30 21:02:00,
2013-05-30 15:07:00,58.6,30.4,29.82,North,0,0.0,0.0,34,0.00,,SKC,0.00,VWS V13.00,2013-05-30 21:07:00,
2013-05-30 15:12:00,58.1,29.9,29.85,North,0,0.0,0.0,34,0.00,,SKC,0.00,VWS V13.00,2013-05-30 21:12:00,
2013-05-30 15:17:00,58.1,30.6,29.85,North,0,0.0,0.0,35,0.00,,SKC,0.00,VWS V13.00,2013-05-30 21:17:00,
2013-05-30 15:22:00,58.3,30.1,29.85,North,0,0.0,0.0,34,0.00,,SKC,0.00,VWS V13.00,2013-05-30 21:22:00,
2013-05-30 15:27:00,58.8,30.5,29.82,North,0,0.0,0.0,34,0.00,,SKC,0.00,VWS V13.00,2013-05-30 21:27:00,
2013-05-30 15:32:00,58.6,31.1,29.82,North,0,0.0,0.0,35,0.00,,SKC,0.00,VWS V13.00,2013-05-30 21:32:00,
2013-05-30 15:37:00,58.5,30.2,29.82,North,0,0.0,0.0,34,0.00,,SKC,0.00,VWS V13.00,2013-05-30 21:37:00,
2013-05-30 15:42:00,57.9,30.5,29.85,North,0,0.0,0.0,35,0.00,,SKC,0.00,VWS V13.00,2013-05-30 21:42:00,
2013-05-30 15:47:00,57.9,30.5,29.85,North,0,0.0,0.0,35,0.00,,SKC,0.00,VWS V13.00,2013-05-30 21:47:00,
2013-05-30 15:52:00,58.1,30.6,29.85,North,0,0.0,0.0,35,0.00,,SKC,0.00,VWS V13.00,2013-05-30 21:52:00,
2013-05-30 15:57:00,58.3,30.8,29.85,North,0,0.0,0.0,35,0.00,,SKC,0.00,VWS V13.00,2013-05-30 21:57:00,
2013-05-30 16:02:00,58.3,30.1,29.85,North,0,0.0,0.0,34,0.00,,SKC,0.00,VWS V13.00,2013-05-30 22:02:00,
2013-05-30 16:07:00,57.9,30.5,29.85,North,0,0.0,0.0,35,0.00,,SKC,0.00,VWS V13.00,2013-05-30 22:07:00,
2013-05-30 16:12:00,57.7,29.6,29.85,North,0,0.0,0.0,34,0.00,,SKC,0.00,VWS V13.00,2013-05-30 22:12:00,
2013-05-30 16:17:00,57.7,29.6,29.85,North,0,0.0,0.0,34,0.00,,SKC,0.00,VWS V13.00,2013-05-30 22:17:00,
2013-05-30 16:22:00,57.4,28.5,29.85,North,0,0.0,0.0,33,0.00,,SKC,0.00,VWS V13.00,2013-05-30 22:22:00,
2013-05-30 16:27:00,57.0,29.0,29.85,North,0,0.0,0.0,34,0.00,,SKC,0.00,VWS V13.00,2013-05-30 22:27:00,
2013-05-30 16:32:00,56.7,29.3,29.85,North,0,0.0,0.0,35,0.00,,SKC,0.00,VWS V13.00,2013-05-30 22:32:00,
2013-05-30 16:37:00,57.0,29.7,29.85,North,0,0.0,0.0,35,0.00,,SKC,0.00,VWS V13.00,2013-05-30 22:37:00,
2013-05-30 16:43:00,57.4,29.3,29.85,North,0,0.0,0.0,34,0.00,,SKC,0.00,VWS V13.00,2013-05-30 22:43:00,
2013-05-30 16:48:00,57.4,29.3,29.85,North,0,0.0,0.0,34,0.00,,SKC,0.00,VWS V13.00,2013-05-30 22:48:00,
2013-05-30 16:53:00,57.0,29.0,29.85,North,0,0.0,0.0,34,0.00,,SKC,0.00,VWS V13.00,2013-05-30 22:53:00,
2013-05-30 16:58:00,56.7,29.3,29.85,North,0,0.0,0.0,35,0.00,,SKC,0.00,VWS V13.00,2013-05-30 22:58:00,
2013-05-30 17:03:00,56.7,29.3,29.85,North,0,0.0,0.0,35,0.00,,SKC,0.00,VWS V13.00,2013-05-30 23:03:00,
2013-05-30 17:08:00,56.7,29.3,29.85,North,0,0.0,0.0,35,0.00,,SKC,0.00,VWS V13.00,2013-05-30 23:08:00,
2013-05-30 17:13:00,57.0,29.0,29.85,North,0,0.0,0.0,34,0.00,,SKC,0.00,VWS V13.00,2013-05-30 23:13:00,
2013-05-30 17:18:00,57.2,29.1,29.85,North,0,0.0,0.0,34,0.00,,SKC,0.00,VWS V13.00,2013-05-30 23:18:00,
2013-05-30 17:23:00,57.2,29.1,29.85,North,0,0.0,0.0,34,0.00,,SKC,0.00,VWS V13.00,2013-05-30 23:23:00,
2013-05-30 17:28:00,57.0,29.7,29.85,North,0,0.0,0.0,35,0.00,,SKC,0.00,VWS V13.00,2013-05-30 23:28:00,
2013-05-30 17:33:00,56.8,29.5,29.85,North,0,0.0,0.0,35,0.00,,SKC,0.00,VWS V13.00,2013-05-30 23:33:00,
2013-05-30 17:38:00,56.8,29.5,29.85,North,0,0.0,0.0,35,0.00,,SKC,0.00,VWS V13.00,2013-05-30 23:38:00,
2013-05-30 17:43:00,56.7,29.3,29.85,North,0,0.0,0.0,35,0.00,,SKC,0.00,VWS V13.00,2013-05-30 23:43:00,
2013-05-30 17:48:00,56.7,29.3,29.85,North,0,0.0,0.0,35,0.00,,SKC,0.00,VWS V13.00,2013-05-30 23:48:00,
2013-05-30 17:53:00,56.7,29.3,29.85,North,0,0.0,0.0,35,0.00,,SKC,0.00,VWS V13.00,2013-05-30 23:53:00,
2013-05-30 17:58:00,56.5,29.2,29.85,North,0,0.0,0.0,35,0.00,,SKC,0.00,VWS V13.00,2013-05-30 23:58:00,
2013-05-30 18:03:00,56.3,29.0,29.85,North,0,0.0,0.0,35,0.00,,SKC,0.00,VWS V13.00,2013-05-31 00:03:00,
2013-05-30 18:08:00,56.3,28.3,29.85,North,0,0.0,0.0,34,0.00,,SKC,0.00,VWS V13.00,2013-05-31 00:08:00,
2013-05-30 18:13:00,56.1,28.9,29.85,North,0,0.0,0.0,35,0.00,,SKC,0.00,VWS V13.00,2013-05-31 00:13:00,
2013-05-30 18:18:00,56.1,28.9,29.85,North,0,0.0,0.0,35,0.00,,SKC,0.00,VWS V13.00,2013-05-31 00:18:00,
2013-05-30 18:23:00,56.3,29.0,29.85,North,0,0.0,0.0,35,0.00,,SKC,0.00,VWS V13.00,2013-05-31 00:23:00,
2013-05-30 18:28:00,56.3,29.0,29.85,North,0,0.0,0.0,35,0.00,,SKC,0.00,VWS V13.00,2013-05-31 00:28:00,
2013-05-30 18:33:00,56.5,29.9,29.85,North,0,0.0,0.0,36,0.00,,SKC,0.00,VWS V13.00,2013-05-31 00:33:00,
2013-05-30 18:39:00,56.3,29.0,29.85,North,0,0.0,0.0,35,0.00,,SKC,0.00,VWS V13.00,2013-05-31 00:39:00,
2013-05-30 18:44:00,55.8,28.5,29.85,North,0,0.0,0.0,35,0.00,,SKC,0.00,VWS V13.00,2013-05-31 00:44:00,
2013-05-30 18:49:00,55.6,29.1,29.85,North,0,0.0,0.0,36,0.00,,SKC,0.00,VWS V13.00,2013-05-31 00:49:00,
2013-05-30 18:54:00,55.6,28.4,29.85,North,0,0.0,0.0,35,0.00,,SKC,0.00,VWS V13.00,2013-05-31 00:54:00,
2013-05-30 18:59:00,55.4,28.2,29.85,North,0,0.0,0.0,35,0.00,,SKC,0.00,VWS V13.00,2013-05-31 00:59:00,
2013-05-30 19:04:00,55.4,28.2,29.85,North,0,0.0,0.0,35,0.00,,SKC,0.00,VWS V13.00,2013-05-31 01:04:00,
2013-05-30 19:09:00,55.2,28.1,29.85,North,0,0.0,0.0,35,0.00,,SKC,0.00,VWS V13.00,2013-05-31 01:09:00,
2013-05-30 19:14:00,54.7,27.6,29.85,North,0,0.0,0.0,35,0.00,,SKC,0.00,VWS V13.00,2013-05-31 01:14:00,
2013-05-30 19:19:00,55.0,28.6,29.85,North,0,0.0,0.0,36,0.00,,SKC,0.00,VWS V13.00,2013-05-31 01:19:00,
2013-05-30 19:24:00,54.5,28.1,29.85,North,0,0.0,0.0,36,0.00,,SKC,0.00,VWS V13.00,2013-05-31 01:24:00,
2013-05-30 19:29:00,54.1,27.8,29.85,North,0,0.0,0.0,36,0.00,,SKC,0.00,VWS V13.00,2013-05-31 01:29:00,
2013-05-30 19:34:00,53.8,27.5,29.85,North,0,0.0,0.0,36,0.00,,SKC,0.00,VWS V13.00,2013-05-31 01:34:00,
2013-05-30 19:39:00,53.1,27.5,29.85,North,0,0.0,0.0,37,0.00,,SKC,0.00,VWS V13.00,2013-05-31 01:39:00,
2013-05-30 19:44:00,52.7,27.2,29.85,North,0,0.0,0.0,37,0.00,,SKC,0.00,VWS V13.00,2013-05-31 01:44:00,
2013-05-30 19:49:00,52.3,26.9,29.85,North,0,0.0,0.0,37,0.00,,SKC,0.00,VWS V13.00,2013-05-31 01:49:00,
2013-05-30 19:54:00,52.0,27.2,29.85,North,0,0.0,0.0,38,0.00,,SKC,0.00,VWS V13.00,2013-05-31 01:54:00,
2013-05-30 19:59:00,51.6,26.9,29.85,North,0,0.0,0.0,38,0.00,,SKC,0.00,VWS V13.00,2013-05-31 01:59:00,
2013-05-30 20:04:00,51.4,27.9,29.85,North,0,0.0,0.0,40,0.00,,SKC,0.00,VWS V13.00,2013-05-31 02:04:00,
2013-05-30 20:09:00,51.1,27.6,29.85,North,0,0.0,0.0,40,0.00,,SKC,0.00,VWS V13.00,2013-05-31 02:09:00,
2013-05-30 20:14:00,50.7,29.1,29.85,North,0,0.0,0.0,43,0.00,,SKC,0.00,VWS V13.00,2013-05-31 02:14:00,
2013-05-30 20:19:00,50.2,29.7,29.85,North,0,0.0,0.0,45,0.00,,SKC,0.00,VWS V13.00,2013-05-31 02:19:00,
2013-05-30 20:24:00,49.8,30.4,29.85,North,0,0.0,0.0,47,0.00,,SKC,0.00,VWS V13.00,2013-05-31 02:24:00,
2013-05-30 20:29:00,49.5,30.6,29.85,North,0,0.0,0.0,48,0.00,,SKC,0.00,VWS V13.00,2013-05-31 02:29:00,
2013-05-30 20:34:00,49.1,30.8,29.85,North,0,0.0,0.0,49,0.00,,SKC,0.00,VWS V13.00,2013-05-31 02:34:00,
2013-05-30 20:39:00,48.7,31.4,29.85,North,0,0.0,0.0,51,0.00,,SKC,0.00,VWS V13.00,2013-05-31 02:39:00,
2013-05-30 20:44:00,48.4,31.6,29.85,North,0,0.0,0.0,52,0.00,,SKC,0.00,VWS V13.00,2013-05-31 02:44:00,
2013-05-30 20:49:00,48.2,31.4,29.85,North,0,0.0,0.0,52,0.00,,SKC,0.00,VWS V13.00,2013-05-31 02:49:00,
2013-05-30 20:54:00,48.2,31.9,29.85,North,0,0.0,0.0,53,0.00,,SKC,0.00,VWS V13.00,2013-05-31 02:54:00,
2013-05-30 21:00:00,48.0,31.7,29.85,North,0,0.0,0.0,53,0.00,,SKC,0.00,VWS V13.00,2013-05-31 03:00:00,
2013-05-30 21:05:00,48.0,31.7,29.85,North,0,0.0,0.0,53,0.00,,SKC,0.00,VWS V13.00,2013-05-31 03:05:00,
2013-05-30 21:10:00,48.0,31.7,29.85,North,0,0.0,0.0,53,0.00,,SKC,0.00,VWS V13.00,2013-05-31 03:10:00,
2013-05-30 21:15:00,47.8,31.1,29.85,North,0,0.0,0.0,52,0.00,,SKC,0.00,VWS V13.00,2013-05-31 03:15:00,
2013-05-30 21:20:00,47.5,31.2,29.85,North,0,0.0,0.0,53,0.00,,SKC,0.00,VWS V13.00,2013-05-31 03:20:00,
2013-05-30 21:25:00,47.1,30.9,29.85,North,0,0.0,0.0,53,0.00,,SKC,0.00,VWS V13.00,2013-05-31 03:25:00,
2013-05-30 21:30:00,46.8,31.0,29.85,North,0,0.0,0.0,54,0.00,,SKC,0.00,VWS V13.00,2013-05-31 03:30:00,
2013-05-30 21:35:00,46.2,30.5,29.85,North,0,0.0,0.0,54,0.00,,SKC,0.00,VWS V13.00,2013-05-31 03:35:00,
2013-05-30 21:40:00,45.7,30.9,29.85,North,0,0.0,0.0,56,0.00,,SKC,0.00,VWS V13.00,2013-05-31 03:40:00,
2013-05-30 21:45:00,45.1,30.4,29.85,North,0,0.0,0.0,56,0.00,,SKC,0.00,VWS V13.00,2013-05-31 03:45:00,
2013-05-30 21:50:00,45.0,30.7,29.85,North,0,0.0,0.0,57,0.00,,SKC,0.00,VWS V13.00,2013-05-31 03:50:00,
2013-05-30 21:55:00,44.4,30.6,29.85,North,0,0.0,0.0,58,0.00,,SKC,0.00,VWS V13.00,2013-05-31 03:55:00,
2013-05-30 22:00:00,44.1,30.2,29.85,North,0,0.0,0.0,58,0.00,,SKC,0.00,VWS V13.00,2013-05-31 04:00:00,
2013-05-30 22:01:00,44.1,30.7,29.85,North,0,0.0,0.0,59,0.00,,SKC,0.00,VWS V13.00,2013-05-31 04:01:00,
2013-05-30 22:02:00,44.1,30.7,29.85,North,0,0.0,0.0,59,0.00,,SKC,0.00,VWS V13.00,2013-05-31 04:02:00,
2013-05-30 22:03:00,43.9,30.5,29.85,North,0,0.0,0.0,59,0.00,,SKC,0.00,VWS V13.00,2013-05-31 04:03:00,
2013-05-30 22:08:00,43.7,30.3,29.85,North,0,0.0,0.0,59,0.00,,SKC,0.00,VWS V13.00,2013-05-31 04:08:00,
2013-05-30 22:13:00,43.3,30.4,29.85,North,0,0.0,0.0,60,0.00,,SKC,0.00,VWS V13.00,2013-05-31 04:13:00,
2013-05-30 22:18:00,43.0,30.1,29.85,North,0,0.0,0.0,60,0.00,,SKC,0.00,VWS V13.00,2013-05-31 04:18:00,
2013-05-30 22:23:00,43.0,30.5,29.85,North,0,0.0,0.0,61,0.00,,SKC,0.00,VWS V13.00,2013-05-31 04:23:00,
2013-05-30 22:28:00,42.8,30.3,29.85,North,0,0.0,0.0,61,0.00,,SKC,0.00,VWS V13.00,2013-05-31 04:28:00,
2013-05-30 22:33:00,42.4,30.4,29.85,North,0,0.0,0.0,62,0.00,,SKC,0.00,VWS V13.00,2013-05-31 04:33:00,
2013-05-30 22:38:00,42.3,30.2,29.85,North,0,0.0,0.0,62,0.00,,SKC,0.00,VWS V13.00,2013-05-31 04:38:00,
2013-05-30 22:43:00,41.9,29.9,29.85,North,0,0.0,0.0,62,0.00,,SKC,0.00,VWS V13.00,2013-05-31 04:43:00,
2013-05-30 22:48:00,41.9,29.9,29.85,North,0,0.0,0.0,62,0.00,,SKC,0.00,VWS V13.00,2013-05-31 04:48:00,
2013-05-30 22:53:00,41.7,30.1,29.85,North,0,0.0,0.0,63,0.00,,SKC,0.00,VWS V13.00,2013-05-31 04:53:00,
2013-05-30 22:59:00,41.7,30.1,29.85,North,0,0.0,0.0,63,0.00,,SKC,0.00,VWS V13.00,2013-05-31 04:59:00,
2013-05-30 23:04:00,41.9,30.2,29.85,North,0,0.0,0.0,63,0.00,,SKC,0.00,VWS V13.00,2013-05-31 05:04:00,
2013-05-30 23:09:00,41.9,30.6,29.85,North,0,0.0,0.0,64,0.00,,SKC,0.00,VWS V13.00,2013-05-31 05:09:00,
2013-05-30 23:14:00,42.1,30.8,29.88,North,0,0.0,0.0,64,0.00,,SKC,0.00,VWS V13.00,2013-05-31 05:14:00,
2013-05-30 23:19:00,42.1,30.4,29.88,North,0,0.0,0.0,63,0.00,,SKC,0.00,VWS V13.00,2013-05-31 05:19:00,
2013-05-30 23:24:00,42.1,30.4,29.88,North,0,0.0,0.0,63,0.00,,SKC,0.00,VWS V13.00,2013-05-31 05:24:00,
2013-05-30 23:29:00,41.9,30.2,29.88,North,0,0.0,0.0,63,0.00,,SKC,0.00,VWS V13.00,2013-05-31 05:29:00,
2013-05-30 23:34:00,41.9,30.2,29.88,North,0,0.0,0.0,63,0.00,,SKC,0.00,VWS V13.00,2013-05-31 05:34:00,
2013-05-30 23:39:00,41.7,30.1,29.88,North,0,0.0,0.0,63,0.00,,SKC,0.00,VWS V13.00,2013-05-31 05:39:00,
2013-05-30 23:44:00,41.5,29.9,29.85,North,0,0.0,0.0,63,0.00,,SKC,0.00,VWS V13.00,2013-05-31 05:44:00,
2013-05-30 23:49:00,41.0,29.4,29.85,North,0,0.0,0.0,63,0.00,,SKC,0.00,VWS V13.00,2013-05-31 05:49:00,
2013-05-30 23:54:00,40.8,29.6,29.85,North,0,0.0,0.0,64,0.00,,SKC,0.00,VWS V13.00,2013-05-31 05:54:00,
2013-05-30 23:59:00,40.6,29.4,29.85,North,0,0.0,0.0,64,0.00,,SKC,0.00,VWS V13.00,2013-05-31 05:59:00,